Terminal Aerodrome Forecast
Issued by NWS Mobile, AL

Home | Current Version | Previous Version | Text Only | Print | Product List | Glossary On
Versions: 1 2 3 4 5 6 7 8 9 10 11 12 13 14 15 16 17 18 19 20 21 22 23 24 25 26 27 28 29 30 31 32 33 34 35 36 37 38
000
FTUS44 KMOB 281145
TAFMOB
TAF
KMOB 281145Z 2812/2912 35005KT 6SM BR BKN030 OVC250
     FM281800 13012KT P6SM VCTS OVC015CB
      TEMPO 2820/2824 4SM TSRA BKN007CB
     FM290300 35007KT 5SM BR VCSH OVC004=

USA.gov is the U.S. government's official web portal to all federal, state and local government web resources and services.